createdAt,value
2017-03-09T00:00:21.493Z,0
2017-03-09T00:01:30.476Z,0
2017-03-09T00:02:39.473Z,0
2017-03-09T00:03:48.462Z,0
2017-03-09T00:04:57.536Z,0
2017-03-09T00:06:06.602Z,0
2017-03-09T00:07:15.673Z,0
2017-03-09T00:08:25.090Z,0
2017-03-09T00:09:34.495Z,0
2017-03-09T00:10:43.511Z,0
2017-03-09T00:11:52.550Z,0
2017-03-09T00:13:01.521Z,0
2017-03-09T00:14:10.513Z,0
2017-03-09T00:15:19.485Z,0
2017-03-09T00:16:28.466Z,0
2017-03-09T00:17:37.498Z,0
2017-03-09T00:18:46.490Z,0
2017-03-09T00:19:55.477Z,0
2017-03-09T00:21:04.453Z,0
2017-03-09T00:22:13.439Z,0
2017-03-09T00:23:22.531Z,0
2017-03-09T00:24:31.525Z,0
2017-03-09T00:25:40.924Z,0
2017-03-09T00:26:49.905Z,0
2017-03-09T00:27:58.903Z,0
2017-03-09T00:29:07.975Z,0
2017-03-09T00:30:17.038Z,0
2017-03-09T00:31:26.019Z,0
2017-03-09T00:32:35.021Z,0
2017-03-09T00:33:44.419Z,0
2017-03-09T00:34:53.427Z,0
2017-03-09T00:36:02.489Z,0
2017-03-09T00:37:11.494Z,0
2017-03-09T00:38:20.477Z,0
2017-03-09T00:39:29.481Z,0
2017-03-09T00:40:38.559Z,0
2017-03-09T00:41:47.547Z,0
2017-03-09T00:42:56.540Z,0
2017-03-09T00:44:05.542Z,0
2017-03-09T00:45:14.514Z,0
2017-03-09T00:46:23.507Z,0
2017-03-09T00:47:32.499Z,0
2017-03-09T00:48:41.488Z,0
2017-03-09T00:49:50.471Z,0
2017-03-09T00:50:59.545Z,0
2017-03-09T00:52:08.927Z,0
2017-03-09T00:53:17.920Z,0
2017-03-09T00:54:26.899Z,0
2017-03-09T00:55:35.894Z,0
2017-03-09T00:56:44.874Z,0
2017-03-09T00:57:53.889Z,0
2017-03-09T00:59:02.889Z,0
2017-03-09T01:00:11.965Z,0
2017-03-09T01:01:20.966Z,0
2017-03-09T01:02:30.033Z,0
2017-03-09T01:03:39.012Z,0
2017-03-09T01:04:48.097Z,0
2017-03-09T01:05:57.185Z,0
2017-03-09T01:07:06.262Z,0
2017-03-09T01:08:15.286Z,0
2017-03-09T01:09:24.261Z,0
2017-03-09T01:10:33.243Z,0
2017-03-09T01:11:42.237Z,0
2017-03-09T01:12:51.228Z,0
2017-03-09T01:14:00.220Z,0
2017-03-09T01:15:09.244Z,0
2017-03-09T01:16:18.619Z,0
2017-03-09T01:17:27.610Z,0
2017-03-09T01:18:36.677Z,0
2017-03-09T01:19:45.855Z,0
2017-03-09T01:20:54.847Z,0
2017-03-09T01:22:03.829Z,0
2017-03-09T01:23:12.804Z,0
2017-03-09T01:24:21.783Z,0
2017-03-09T01:25:30.948Z,0
2017-03-09T01:26:39.924Z,0
2017-03-09T01:27:48.900Z,0
2017-03-09T01:28:57.893Z,0
2017-03-09T01:30:06.879Z,0
2017-03-09T01:31:15.870Z,0
2017-03-09T01:32:24.842Z,0
2017-03-09T01:33:33.840Z,0
2017-03-09T01:34:42.824Z,0
2017-03-09T01:35:51.812Z,0
2017-03-09T01:37:00.803Z,0
2017-03-09T01:38:09.798Z,0
2017-03-09T01:39:18.790Z,0
2017-03-09T01:40:27.786Z,0
2017-03-09T01:41:36.768Z,0
2017-03-09T01:42:45.744Z,0
2017-03-09T01:43:54.907Z,0
2017-03-09T01:45:03.894Z,0
2017-03-09T01:46:13.311Z,0
2017-03-09T01:47:22.794Z,0
2017-03-09T01:48:31.783Z,0
2017-03-09T01:49:40.773Z,0
2017-03-09T01:50:49.769Z,0
2017-03-09T01:51:58.759Z,0
2017-03-09T01:53:07.751Z,0
2017-03-09T01:54:16.731Z,0
2017-03-09T01:55:25.778Z,0
2017-03-09T01:56:34.977Z,0
2017-03-09T01:57:44.366Z,0
2017-03-09T01:58:53.447Z,0
2017-03-09T02:00:02.458Z,0
2017-03-09T02:01:11.439Z,0
2017-03-09T02:02:20.434Z,0
2017-03-09T02:03:29.519Z,0
2017-03-09T02:04:38.510Z,0
2017-03-09T02:05:47.507Z,0
2017-03-09T02:06:56.537Z,0
2017-03-09T02:08:05.612Z,0
2017-03-09T02:09:14.590Z,0
2017-03-09T02:10:23.661Z,0
2017-03-09T02:11:32.640Z,0
2017-03-09T02:12:41.633Z,0
2017-03-09T02:13:50.608Z,0
2017-03-09T02:14:59.595Z,0
2017-03-09T02:16:08.986Z,0
2017-03-09T02:17:17.980Z,0
2017-03-09T02:18:27.411Z,0
2017-03-09T02:19:36.388Z,0
2017-03-09T02:20:45.527Z,0
2017-03-09T02:21:54.914Z,0
2017-03-09T02:23:04.096Z,0
2017-03-09T02:24:13.094Z,0
2017-03-09T02:25:22.077Z,0
2017-03-09T02:26:31.151Z,0
2017-03-09T02:27:40.142Z,0
2017-03-09T02:28:49.121Z,0
2017-03-09T02:29:58.113Z,0
2017-03-09T02:31:07.294Z,0
2017-03-09T02:32:16.304Z,0
2017-03-09T02:33:25.292Z,0
2017-03-09T02:34:34.271Z,0
2017-03-09T02:35:43.359Z,0
2017-03-09T02:36:52.754Z,0
2017-03-09T02:38:01.729Z,0
2017-03-09T02:39:10.722Z,0
2017-03-09T02:40:19.696Z,0
2017-03-09T02:41:29.235Z,0
2017-03-09T02:42:38.225Z,0
2017-03-09T02:43:47.233Z,0
2017-03-09T02:44:56.203Z,0
2017-03-09T02:46:05.182Z,0
2017-03-09T02:47:14.172Z,0
2017-03-09T02:48:23.148Z,0
2017-03-09T02:49:32.136Z,0
2017-03-09T02:50:41.139Z,0
2017-03-09T02:51:50.141Z,0
2017-03-09T02:52:59.112Z,0
2017-03-09T02:54:08.101Z,0
2017-03-09T02:55:17.079Z,0
2017-03-09T02:56:26.072Z,0
2017-03-09T02:57:35.057Z,0
2017-03-09T02:58:44.046Z,0
2017-03-09T02:59:53.018Z,0
2017-03-09T03:01:02.011Z,0
2017-03-09T03:02:11.093Z,0
2017-03-09T03:03:20.088Z,0
2017-03-09T03:04:29.062Z,0
2017-03-09T03:05:38.132Z,0
2017-03-09T03:06:47.225Z,0
2017-03-09T03:07:56.293Z,0
2017-03-09T03:09:05.301Z,0
2017-03-09T03:10:14.369Z,0
2017-03-09T03:11:23.354Z,0
2017-03-09T03:12:32.359Z,0
2017-03-09T03:13:41.769Z,0
2017-03-09T03:14:50.832Z,0
2017-03-09T03:15:59.872Z,0
2017-03-09T03:17:08.847Z,0
2017-03-09T03:18:17.828Z,0
2017-03-09T03:19:26.806Z,0
2017-03-09T03:20:36.183Z,0
2017-03-09T03:21:45.152Z,0
2017-03-09T03:22:54.137Z,0
2017-03-09T03:24:03.126Z,0
2017-03-09T03:25:12.157Z,0
2017-03-09T03:26:21.152Z,0
2017-03-09T03:27:30.151Z,0
2017-03-09T03:28:39.250Z,0
2017-03-09T03:29:48.216Z,0
2017-03-09T03:30:57.317Z,0
2017-03-09T03:32:06.377Z,0
2017-03-09T03:33:15.369Z,0
2017-03-09T03:34:24.768Z,0
2017-03-09T03:35:33.746Z,0
2017-03-09T03:36:42.900Z,0
2017-03-09T03:37:51.974Z,0
2017-03-09T03:39:00.988Z,0
2017-03-09T03:40:09.966Z,0
2017-03-09T03:41:19.051Z,0
2017-03-09T03:42:28.037Z,0
2017-03-09T03:43:37.023Z,0
2017-03-09T03:44:46.014Z,0
2017-03-09T03:45:55.014Z,0
2017-03-09T03:47:04.742Z,0
2017-03-09T03:48:13.827Z,0
2017-03-09T03:49:22.905Z,0
2017-03-09T03:50:31.968Z,0
2017-03-09T03:51:40.936Z,0
2017-03-09T03:52:49.928Z,0
2017-03-09T03:53:59.003Z,0
2017-03-09T03:55:07.989Z,0
2017-03-09T03:56:16.970Z,0
2017-03-09T03:57:26.038Z,0
2017-03-09T03:58:35.024Z,0
2017-03-09T03:59:44.097Z,0
2017-03-09T04:00:53.076Z,0
2017-03-09T04:02:02.090Z,0
2017-03-09T04:03:11.150Z,0
2017-03-09T04:04:20.135Z,0
2017-03-09T04:05:29.114Z,0
2017-03-09T04:06:38.217Z,0
2017-03-09T04:07:48.063Z,0
2017-03-09T04:08:57.141Z,0
2017-03-09T04:10:06.128Z,0
2017-03-09T04:11:15.542Z,0
2017-03-09T04:12:25.278Z,0
2017-03-09T04:13:34.358Z,0
2017-03-09T04:14:43.346Z,0
2017-03-09T04:15:52.331Z,0
2017-03-09T04:17:01.308Z,0
2017-03-09T04:18:10.291Z,0
2017-03-09T04:19:19.327Z,0
2017-03-09T04:20:28.315Z,0
2017-03-09T04:21:37.294Z,0
2017-03-09T04:22:46.283Z,0
2017-03-09T04:23:55.385Z,0
2017-03-09T04:25:04.458Z,0
2017-03-09T04:26:13.449Z,0
2017-03-09T04:27:23.016Z,0
2017-03-09T04:28:32.517Z,0
2017-03-09T04:29:41.912Z,0
2017-03-09T04:30:50.968Z,0
2017-03-09T04:31:59.968Z,0
2017-03-09T04:33:09.046Z,0
2017-03-09T04:34:18.351Z,0
2017-03-09T04:35:27.344Z,0
2017-03-09T04:36:36.434Z,0
2017-03-09T04:37:45.427Z,0
2017-03-09T04:38:54.401Z,0
2017-03-09T04:40:03.785Z,0
2017-03-09T04:41:13.187Z,0
2017-03-09T04:42:22.577Z,0
2017-03-09T04:43:31.642Z,0
2017-03-09T04:44:40.639Z,0
2017-03-09T04:45:49.651Z,0
2017-03-09T04:46:58.637Z,0
2017-03-09T04:48:08.341Z,0
2017-03-09T04:49:17.315Z,0
2017-03-09T04:50:26.310Z,0
2017-03-09T04:51:35.284Z,0
2017-03-09T04:52:44.267Z,0
2017-03-09T04:53:53.661Z,0
2017-03-09T04:55:03.458Z,0
2017-03-09T04:56:12.525Z,0
2017-03-09T04:57:21.506Z,0
2017-03-09T04:58:30.602Z,0
2017-03-09T04:59:39.569Z,0
2017-03-09T05:00:48.549Z,0
2017-03-09T05:01:57.609Z,0
2017-03-09T05:03:06.608Z,0
2017-03-09T05:04:15.676Z,0
2017-03-09T05:05:24.657Z,0
2017-03-09T05:06:34.388Z,0
2017-03-09T05:07:43.373Z,0
2017-03-09T05:08:52.358Z,0
2017-03-09T05:10:01.360Z,0
2017-03-09T05:11:10.351Z,0
2017-03-09T05:12:19.339Z,0
2017-03-09T05:13:28.320Z,0
2017-03-09T05:14:37.309Z,0
2017-03-09T05:15:46.281Z,0
2017-03-09T05:16:55.270Z,0
2017-03-09T05:18:04.666Z,0
2017-03-09T05:19:13.658Z,0
2017-03-09T05:20:22.735Z,0
2017-03-09T05:21:31.717Z,0
2017-03-09T05:22:40.833Z,0
2017-03-09T05:23:49.839Z,0
2017-03-09T05:24:58.830Z,0
2017-03-09T05:26:07.816Z,0
2017-03-09T05:27:17.213Z,0
2017-03-09T05:28:26.336Z,0
2017-03-09T05:29:35.327Z,0
2017-03-09T05:30:44.299Z,0
2017-03-09T05:31:53.284Z,0
2017-03-09T05:33:02.311Z,0
2017-03-09T05:34:11.286Z,0
2017-03-09T05:35:20.391Z,0
2017-03-09T05:36:29.380Z,0
2017-03-09T05:37:38.352Z,0
2017-03-09T05:38:47.328Z,0
2017-03-09T05:39:56.308Z,0
2017-03-09T05:41:05.302Z,0
2017-03-09T05:42:14.289Z,0
2017-03-09T05:43:23.283Z,0
2017-03-09T05:44:32.681Z,0
2017-03-09T05:45:41.800Z,0
2017-03-09T05:46:50.784Z,0
2017-03-09T05:47:59.862Z,0
2017-03-09T05:49:09.260Z,0
2017-03-09T05:50:18.239Z,0
2017-03-09T05:51:27.222Z,0
2017-03-09T05:52:36.209Z,0
2017-03-09T05:53:45.192Z,0
2017-03-09T05:54:54.173Z,0
2017-03-09T05:56:03.341Z,0
2017-03-09T05:57:12.330Z,0
2017-03-09T05:58:21.335Z,0
2017-03-09T05:59:30.321Z,0
2017-03-09T06:00:39.312Z,0
2017-03-09T06:01:48.311Z,0
2017-03-09T06:02:57.284Z,0
2017-03-09T06:04:07.079Z,0
2017-03-09T06:05:16.055Z,0
2017-03-09T06:06:25.045Z,0
2017-03-09T06:07:34.024Z,5
2017-03-09T06:08:42.996Z,5
2017-03-09T06:09:51.965Z,5
2017-03-09T06:11:00.969Z,5
2017-03-09T06:12:10.120Z,5
2017-03-09T06:13:19.097Z,5
2017-03-09T06:14:28.120Z,5
2017-03-09T06:15:37.107Z,5
2017-03-09T06:16:46.128Z,0
2017-03-09T06:17:55.103Z,5
2017-03-09T06:19:04.216Z,5
2017-03-09T06:20:13.208Z,5
2017-03-09T06:21:22.661Z,5
2017-03-09T06:22:31.637Z,5
2017-03-09T06:23:40.611Z,5
2017-03-09T06:24:49.605Z,5
2017-03-09T06:25:58.648Z,5
2017-03-09T06:27:07.639Z,5
2017-03-09T06:28:16.621Z,5
2017-03-09T06:29:25.626Z,5
2017-03-09T06:30:34.607Z,5
2017-03-09T06:31:43.632Z,5
2017-03-09T06:32:52.730Z,5
2017-03-09T06:34:01.708Z,5
2017-03-09T06:35:11.522Z,5
2017-03-09T06:36:20.519Z,10
2017-03-09T06:37:29.549Z,10
2017-03-09T06:38:38.536Z,10
2017-03-09T06:39:47.512Z,10
2017-03-09T06:40:56.511Z,10
2017-03-09T06:42:05.500Z,10
2017-03-09T06:43:14.563Z,5
2017-03-09T06:44:23.576Z,5
2017-03-09T06:45:32.557Z,10
2017-03-09T06:46:41.554Z,10
2017-03-09T06:47:50.531Z,10
2017-03-09T06:48:59.503Z,10
2017-03-09T06:50:08.924Z,10
2017-03-09T06:51:18.475Z,10
2017-03-09T06:52:27.474Z,10
2017-03-09T06:53:36.451Z,10
2017-03-09T06:54:45.475Z,10
2017-03-09T06:55:54.450Z,10
2017-03-09T06:57:03.528Z,10
2017-03-09T06:58:12.592Z,15
2017-03-09T06:59:21.569Z,15
2017-03-09T07:00:30.637Z,15
2017-03-09T07:01:39.620Z,15
2017-03-09T07:02:49.037Z,15
2017-03-09T07:03:58.010Z,10
2017-03-09T07:05:07.084Z,15
2017-03-09T07:06:16.074Z,15
2017-03-09T07:07:25.054Z,15
2017-03-09T07:08:34.156Z,15
2017-03-09T07:09:43.232Z,15
2017-03-09T07:10:52.205Z,20
2017-03-09T07:12:01.233Z,20
2017-03-09T07:13:10.218Z,20
2017-03-09T07:14:19.197Z,20
2017-03-09T07:15:28.205Z,20
2017-03-09T07:16:37.292Z,20
2017-03-09T07:17:46.289Z,25
2017-03-09T07:18:55.293Z,25
2017-03-09T07:20:04.293Z,25
2017-03-09T07:21:13.278Z,25
2017-03-09T07:22:22.260Z,25
2017-03-09T07:23:31.316Z,30
2017-03-09T07:24:40.303Z,30
2017-03-09T07:25:49.283Z,30
2017-03-09T07:26:58.350Z,35
2017-03-09T07:28:07.352Z,35
2017-03-09T07:29:16.390Z,40
2017-03-09T07:30:25.368Z,45
2017-03-09T07:31:34.431Z,50
2017-03-09T07:32:43.427Z,50
2017-03-09T07:33:52.512Z,50
2017-03-09T07:35:01.497Z,50
2017-03-09T07:36:10.874Z,50
2017-03-09T07:37:19.893Z,55
2017-03-09T07:38:29.057Z,65
2017-03-09T07:39:38.050Z,65
2017-03-09T07:40:47.029Z,70
2017-03-09T07:41:56.007Z,75
2017-03-09T07:43:04.982Z,70
2017-03-09T07:44:13.965Z,65
2017-03-09T07:45:22.962Z,65
2017-03-09T07:46:31.995Z,75
2017-03-09T07:47:40.975Z,80
2017-03-09T07:48:49.948Z,80
2017-03-09T07:49:58.954Z,75
2017-03-09T07:51:07.961Z,75
2017-03-09T07:52:16.941Z,65
2017-03-09T07:53:25.925Z,60
2017-03-09T07:54:34.981Z,65
2017-03-09T07:55:43.979Z,75
2017-03-09T07:56:52.955Z,70
2017-03-09T07:58:01.935Z,60
2017-03-09T07:59:10.927Z,65
2017-03-09T08:00:19.914Z,70
2017-03-09T08:01:29.309Z,85
2017-03-09T08:02:38.301Z,90
2017-03-09T08:03:47.303Z,90
2017-03-09T08:04:56.379Z,90
2017-03-09T08:06:05.368Z,90
2017-03-09T08:07:14.393Z,95
2017-03-09T08:08:23.460Z,115
2017-03-09T08:09:32.458Z,120
2017-03-09T08:10:41.444Z,100
2017-03-09T08:11:50.428Z,100
2017-03-09T08:12:59.493Z,100
2017-03-09T08:14:08.483Z,90
2017-03-09T08:15:17.543Z,85
2017-03-09T08:16:26.519Z,85
2017-03-09T08:17:35.514Z,85
2017-03-09T08:18:44.498Z,95
2017-03-09T08:19:53.498Z,105
2017-03-09T08:21:02.481Z,110
2017-03-09T08:22:11.638Z,125
2017-03-09T08:23:21.025Z,135
2017-03-09T08:24:30.101Z,125
2017-03-09T08:25:39.092Z,110
2017-03-09T08:26:48.220Z,100
2017-03-09T08:27:57.307Z,90
2017-03-09T08:29:06.307Z,115
2017-03-09T08:30:15.291Z,120
2017-03-09T08:31:24.287Z,120
2017-03-09T08:32:33.318Z,115
2017-03-09T08:33:42.317Z,115
2017-03-09T08:34:51.380Z,105
2017-03-09T08:36:00.466Z,100
2017-03-09T08:37:09.435Z,90
2017-03-09T08:39:27.380Z,95
2017-03-09T08:42:12.469Z,110
2017-03-09T08:43:21.531Z,105
2017-03-09T08:44:30.568Z,110
2017-03-09T08:45:39.610Z,115
2017-03-09T08:46:48.622Z,135
2017-03-09T08:47:57.665Z,140
2017-03-09T08:49:06.730Z,135
2017-03-09T08:50:15.726Z,140
2017-03-09T08:51:24.705Z,120
2017-03-09T08:52:34.255Z,120
2017-03-09T08:53:43.289Z,110
2017-03-09T08:54:52.338Z,115
2017-03-09T08:56:01.423Z,125
2017-03-09T08:57:10.816Z,125
2017-03-09T08:58:19.820Z,130
2017-03-09T08:59:28.801Z,145
2017-03-09T09:00:37.832Z,160
2017-03-09T09:01:46.807Z,160
2017-03-09T09:02:55.817Z,140
2017-03-09T09:04:04.895Z,140
2017-03-09T09:05:13.902Z,145
2017-03-09T09:06:22.924Z,165
2017-03-09T09:07:31.912Z,190
2017-03-09T09:08:40.890Z,170
2017-03-09T09:09:49.874Z,175
2017-03-09T09:10:58.931Z,180
2017-03-09T09:12:07.920Z,170
2017-03-09T09:13:16.926Z,160
2017-03-09T09:14:25.992Z,150
2017-03-09T09:15:34.979Z,145
2017-03-09T09:16:43.980Z,130
2017-03-09T09:17:52.974Z,120
2017-03-09T09:19:02.062Z,110
2017-03-09T09:20:11.069Z,120
2017-03-09T09:21:20.047Z,105
2017-03-09T09:22:29.168Z,120
2017-03-09T09:23:38.184Z,115
2017-03-09T09:24:47.165Z,90
2017-03-09T09:25:56.160Z,90
2017-03-09T09:27:05.238Z,80
2017-03-09T09:28:14.638Z,75
2017-03-09T09:29:23.667Z,80
2017-03-09T09:30:32.658Z,85
2017-03-09T09:31:41.648Z,110
2017-03-09T09:32:50.645Z,125
2017-03-09T09:34:00.052Z,115
2017-03-09T09:35:09.048Z,115
2017-03-09T09:36:18.026Z,130
2017-03-09T09:37:27.006Z,140
2017-03-09T09:38:36.081Z,130
2017-03-09T09:39:45.058Z,100
2017-03-09T09:40:54.033Z,110
2017-03-09T09:42:03.126Z,120
2017-03-09T09:43:12.129Z,130
2017-03-09T09:44:21.111Z,130
2017-03-09T09:45:30.118Z,120
2017-03-09T09:46:39.106Z,130
2017-03-09T09:47:48.089Z,155
2017-03-09T09:48:57.077Z,165
2017-03-09T09:50:06.059Z,165
2017-03-09T09:51:15.031Z,165
2017-03-09T09:52:24.018Z,170
2017-03-09T09:53:33.028Z,170
2017-03-09T09:54:42.036Z,170
2017-03-09T09:55:51.054Z,165
2017-03-09T09:57:00.029Z,175
2017-03-09T09:58:09.025Z,195
2017-03-09T09:59:18.016Z,190
2017-03-09T10:00:27.075Z,150
2017-03-09T10:01:36.065Z,130
2017-03-09T10:02:45.060Z,150
2017-03-09T10:03:54.100Z,145
2017-03-09T10:05:03.078Z,120
2017-03-09T10:06:12.078Z,110
2017-03-09T10:07:21.068Z,100
2017-03-09T10:08:30.060Z,95
2017-03-09T10:09:39.078Z,105
2017-03-09T10:10:48.072Z,115
2017-03-09T10:11:57.076Z,110
2017-03-09T10:13:06.154Z,90
2017-03-09T10:14:15.147Z,90
2017-03-09T10:15:24.595Z,105
2017-03-09T10:16:33.608Z,130
2017-03-09T10:17:42.667Z,170
2017-03-09T10:18:51.653Z,185
2017-03-09T10:20:00.648Z,190
2017-03-09T10:21:09.701Z,185
2017-03-09T10:22:18.692Z,180
2017-03-09T10:23:27.701Z,190
2017-03-09T10:24:36.682Z,190
2017-03-09T10:25:45.673Z,180
2017-03-09T10:26:54.675Z,170
2017-03-09T10:28:03.661Z,165
2017-03-09T10:29:12.652Z,160
2017-03-09T10:30:21.746Z,160
2017-03-09T10:31:30.819Z,120
2017-03-09T10:32:39.936Z,110
2017-03-09T10:33:48.947Z,120
2017-03-09T10:34:57.943Z,105
2017-03-09T10:36:06.925Z,95
2017-03-09T10:37:15.917Z,80
2017-03-09T10:38:24.963Z,75
2017-03-09T10:39:33.955Z,75
2017-03-09T10:40:42.955Z,75
2017-03-09T10:41:51.947Z,80
2017-03-09T10:43:00.942Z,85
2017-03-09T10:44:09.915Z,100
2017-03-09T10:45:18.907Z,110
2017-03-09T10:46:27.998Z,125
2017-03-09T10:47:37.091Z,150
2017-03-09T10:48:46.080Z,165
2017-03-09T10:49:55.062Z,170
2017-03-09T10:51:04.055Z,180
2017-03-09T10:52:13.045Z,175
2017-03-09T10:53:22.048Z,155
2017-03-09T10:54:31.120Z,150
2017-03-09T10:55:40.108Z,145
2017-03-09T10:56:49.090Z,135
2017-03-09T10:57:58.085Z,140
2017-03-09T10:59:07.488Z,140
2017-03-09T11:00:16.471Z,125
2017-03-09T11:01:25.458Z,115
2017-03-09T11:02:34.460Z,105
2017-03-09T11:03:43.449Z,100
2017-03-09T11:04:52.542Z,105
2017-03-09T11:06:01.745Z,110
2017-03-09T11:07:10.744Z,125
2017-03-09T11:08:19.738Z,135
2017-03-09T11:09:28.883Z,130
2017-03-09T11:10:37.868Z,120
2017-03-09T11:11:46.854Z,125
2017-03-09T11:12:56.298Z,125
2017-03-09T11:14:05.277Z,125
2017-03-09T11:15:14.676Z,135
2017-03-09T11:16:23.668Z,130
2017-03-09T11:17:32.670Z,130
2017-03-09T11:18:41.676Z,135
2017-03-09T11:19:50.681Z,140
2017-03-09T11:20:59.843Z,155
2017-03-09T11:22:08.855Z,160
2017-03-09T11:23:17.855Z,175
2017-03-09T11:24:26.881Z,170
2017-03-09T11:25:35.860Z,170
2017-03-09T11:26:44.841Z,170
2017-03-09T11:27:53.825Z,175
2017-03-09T11:29:03.224Z,170
2017-03-09T11:30:12.273Z,175
2017-03-09T11:31:21.393Z,175
2017-03-09T11:32:30.384Z,175
2017-03-09T11:33:39.371Z,170
2017-03-09T11:34:48.356Z,175
2017-03-09T11:35:57.345Z,165
2017-03-09T11:37:06.358Z,170
2017-03-09T11:38:15.350Z,180
2017-03-09T11:39:24.326Z,200
2017-03-09T11:40:33.311Z,200
2017-03-09T11:41:42.344Z,205
2017-03-09T11:42:51.343Z,220
2017-03-09T11:44:00.347Z,220
2017-03-09T11:45:09.349Z,205
2017-03-09T11:46:18.346Z,190
2017-03-09T11:47:27.325Z,190
2017-03-09T11:48:36.321Z,175
2017-03-09T11:49:45.320Z,165
2017-03-09T11:50:54.723Z,155
2017-03-09T11:52:03.704Z,160
2017-03-09T11:53:12.695Z,165
2017-03-09T11:54:22.098Z,165
2017-03-09T11:55:31.091Z,155
2017-03-09T11:56:40.076Z,150
2017-03-09T11:57:49.149Z,145
2017-03-09T11:58:58.228Z,145
2017-03-09T12:00:07.220Z,140
2017-03-09T12:01:16.286Z,140
2017-03-09T12:02:25.376Z,145
2017-03-09T12:03:34.775Z,145
2017-03-09T12:04:43.802Z,155
2017-03-09T12:05:52.785Z,155
2017-03-09T12:07:01.788Z,160
2017-03-09T12:08:10.790Z,160
2017-03-09T12:09:19.861Z,150
2017-03-09T12:10:28.889Z,150
2017-03-09T12:11:37.866Z,155
2017-03-09T12:12:46.853Z,160
2017-03-09T12:13:55.863Z,165
2017-03-09T12:15:04.850Z,165
2017-03-09T12:16:13.915Z,175
2017-03-09T12:17:22.907Z,185
2017-03-09T12:18:31.893Z,195
2017-03-09T12:19:40.866Z,190
2017-03-09T12:20:49.855Z,180
2017-03-09T12:21:58.835Z,170
2017-03-09T12:23:07.833Z,170
2017-03-09T12:24:16.902Z,175
2017-03-09T12:25:25.890Z,190
2017-03-09T12:26:34.892Z,195
2017-03-09T12:27:43.891Z,195
2017-03-09T12:28:52.884Z,190
2017-03-09T12:30:01.876Z,175
2017-03-09T12:31:10.886Z,170
2017-03-09T12:32:19.963Z,170
2017-03-09T12:33:29.016Z,175
2017-03-09T12:34:38.017Z,175
2017-03-09T12:35:47.009Z,185
2017-03-09T12:36:55.992Z,185
2017-03-09T12:38:04.997Z,185
2017-03-09T12:39:14.192Z,175
2017-03-09T12:40:23.285Z,170
2017-03-09T12:41:32.279Z,170
2017-03-09T12:42:41.273Z,165
2017-03-09T12:43:50.253Z,170
2017-03-09T12:44:59.240Z,170
2017-03-09T12:46:08.654Z,170
2017-03-09T12:47:17.733Z,165
2017-03-09T12:48:26.730Z,170
2017-03-09T12:49:35.722Z,165
2017-03-09T12:50:44.702Z,160
2017-03-09T12:51:54.106Z,140
2017-03-09T12:53:03.090Z,135
2017-03-09T12:54:12.300Z,125
2017-03-09T12:55:21.310Z,115
2017-03-09T12:56:30.585Z,110
2017-03-09T12:57:39.575Z,110
2017-03-09T12:58:48.573Z,110
2017-03-09T12:59:57.982Z,110
2017-03-09T13:01:06.970Z,110
2017-03-09T13:02:16.079Z,115
2017-03-09T13:03:25.164Z,125
2017-03-09T13:04:34.176Z,130
2017-03-09T13:05:43.194Z,135
2017-03-09T13:06:52.193Z,140
2017-03-09T13:08:01.655Z,145
2017-03-09T13:09:10.671Z,145
2017-03-09T13:10:19.654Z,150
2017-03-09T13:11:28.680Z,145
2017-03-09T13:12:37.674Z,145
2017-03-09T13:13:46.723Z,145
2017-03-09T13:14:55.702Z,150
2017-03-09T13:16:04.681Z,150
2017-03-09T13:17:13.762Z,145
2017-03-09T13:18:22.753Z,140
2017-03-09T13:19:32.199Z,130
2017-03-09T13:20:41.212Z,130
2017-03-09T13:21:50.286Z,130
2017-03-09T13:22:59.681Z,125
2017-03-09T13:24:08.749Z,125
2017-03-09T13:25:17.867Z,125
2017-03-09T13:26:26.968Z,125
2017-03-09T13:27:36.469Z,120
2017-03-09T13:28:45.537Z,120
2017-03-09T13:29:54.526Z,115
2017-03-09T13:31:03.563Z,110
2017-03-09T13:32:13.607Z,110
2017-03-09T13:33:22.753Z,110
2017-03-09T13:34:31.780Z,105
2017-03-09T13:35:40.902Z,110
2017-03-09T13:36:50.057Z,110
2017-03-09T13:37:59.501Z,115
2017-03-09T13:39:09.857Z,120
2017-03-09T13:40:18.860Z,130
2017-03-09T13:41:27.933Z,140
2017-03-09T13:42:37.159Z,150
2017-03-09T13:43:46.133Z,150
2017-03-09T13:44:55.118Z,160
2017-03-09T13:46:04.210Z,165
2017-03-09T13:47:13.222Z,165
2017-03-09T13:48:22.285Z,165
2017-03-09T13:49:31.299Z,160
2017-03-09T13:50:40.549Z,150
2017-03-09T13:51:49.948Z,145
2017-03-09T13:52:58.941Z,140
2017-03-09T13:54:07.999Z,130
2017-03-09T13:55:16.990Z,125
2017-03-09T13:56:25.997Z,125
2017-03-09T13:57:35.007Z,130
2017-03-09T13:58:44.072Z,140
2017-03-09T13:59:56.086Z,130
2017-03-09T14:01:05.390Z,130
2017-03-09T14:02:29.301Z,135
2017-03-09T14:03:57.435Z,135
2017-03-09T14:05:09.330Z,130
2017-03-09T14:06:18.690Z,115
2017-03-09T14:07:27.702Z,105
2017-03-09T14:08:36.886Z,110
2017-03-09T14:09:45.874Z,115
2017-03-09T14:10:54.963Z,95
2017-03-09T14:12:03.966Z,85
2017-03-09T14:13:12.976Z,80
2017-03-09T14:14:22.047Z,70
2017-03-09T14:15:31.045Z,65
2017-03-09T14:16:40.175Z,60
2017-03-09T14:17:49.330Z,60
2017-03-09T14:18:58.327Z,60
2017-03-09T14:20:07.317Z,65
2017-03-09T14:21:16.395Z,80
2017-03-09T14:22:25.400Z,75
2017-03-09T14:23:34.388Z,80
2017-03-09T14:24:43.470Z,85
2017-03-09T14:25:52.448Z,90
2017-03-09T14:27:01.440Z,80
2017-03-09T14:28:10.473Z,75
2017-03-09T14:29:19.490Z,70
2017-03-09T14:30:28.568Z,65
2017-03-09T14:31:37.562Z,65
2017-03-09T14:32:46.559Z,65
2017-03-09T14:33:55.553Z,60
2017-03-09T14:35:04.550Z,50
2017-03-09T14:36:13.554Z,45
2017-03-09T14:37:22.544Z,40
2017-03-09T14:38:31.972Z,40
2017-03-09T14:39:41.107Z,35
2017-03-09T14:40:50.100Z,35
2017-03-09T14:41:59.079Z,35
2017-03-09T14:43:08.600Z,35
2017-03-09T14:44:17.717Z,35
2017-03-09T14:45:26.845Z,40
2017-03-09T14:46:35.857Z,50
2017-03-09T14:47:44.941Z,55
2017-03-09T14:48:54.035Z,65
2017-03-09T14:50:03.036Z,70
2017-03-09T14:51:12.423Z,75
2017-03-09T14:52:21.419Z,75
2017-03-09T14:53:30.413Z,75
2017-03-09T14:54:39.412Z,80
2017-03-09T14:55:48.410Z,90
2017-03-09T14:56:57.420Z,100
2017-03-09T14:58:06.500Z,110
2017-03-09T14:59:15.499Z,115
2017-03-09T15:00:24.579Z,110
2017-03-09T15:01:33.594Z,105
2017-03-09T15:02:42.627Z,100
2017-03-09T15:03:51.632Z,90
2017-03-09T15:05:00.614Z,95
2017-03-09T15:06:09.598Z,95
2017-03-09T15:07:18.594Z,90
2017-03-09T15:08:27.744Z,80
2017-03-09T15:09:36.745Z,75
2017-03-09T15:10:46.149Z,75
2017-03-09T15:11:55.151Z,80
2017-03-09T15:13:04.544Z,85
2017-03-09T15:14:13.566Z,85
2017-03-09T15:15:22.955Z,85
2017-03-09T15:16:32.242Z,80
2017-03-09T15:17:41.582Z,75
2017-03-09T15:18:52.307Z,65
2017-03-09T15:20:04.457Z,60
2017-03-09T15:21:13.827Z,55
2017-03-09T15:22:23.102Z,50
2017-03-09T15:23:32.300Z,50
2017-03-09T15:24:41.290Z,45
2017-03-09T15:25:50.268Z,40
2017-03-09T15:26:59.754Z,35
2017-03-09T15:28:08.963Z,35
2017-03-09T15:29:17.965Z,35
2017-03-09T15:30:27.998Z,30
2017-03-09T15:31:37.192Z,30
2017-03-09T15:32:46.284Z,30
2017-03-09T15:33:55.385Z,30
2017-03-09T15:35:04.400Z,25
2017-03-09T15:36:13.401Z,25
2017-03-09T15:37:22.400Z,20
2017-03-09T15:38:31.813Z,20
2017-03-09T15:39:40.799Z,20
2017-03-09T15:40:49.790Z,20
2017-03-09T15:41:59.117Z,20
2017-03-09T15:43:08.314Z,20
2017-03-09T15:44:17.565Z,20
2017-03-09T15:45:26.655Z,20
2017-03-09T15:46:36.412Z,20
2017-03-09T15:47:45.451Z,20
2017-03-09T15:48:54.641Z,20
2017-03-09T15:50:04.175Z,20
2017-03-09T15:51:13.188Z,25
2017-03-09T15:52:22.410Z,25
2017-03-09T15:53:31.580Z,25
2017-03-09T15:54:40.731Z,25
2017-03-09T15:55:49.719Z,30
2017-03-09T15:56:58.784Z,30
2017-03-09T15:58:07.784Z,30
2017-03-09T15:59:16.870Z,30
2017-03-09T16:00:25.853Z,30
2017-03-09T16:01:34.878Z,30
2017-03-09T16:02:43.865Z,30
2017-03-09T16:03:52.878Z,25
2017-03-09T16:05:01.889Z,25
2017-03-09T16:06:10.869Z,25
2017-03-09T16:07:19.873Z,20
2017-03-09T16:08:28.880Z,20
2017-03-09T16:09:37.908Z,20
2017-03-09T16:10:47.327Z,15
2017-03-09T16:11:56.389Z,15
2017-03-09T16:13:05.376Z,15
2017-03-09T16:14:14.391Z,15
2017-03-09T16:15:24.001Z,15
2017-03-09T16:16:33.096Z,15
2017-03-09T16:17:42.544Z,15
2017-03-09T16:18:51.612Z,15
2017-03-09T16:20:00.599Z,15
2017-03-09T16:21:09.597Z,15
2017-03-09T16:22:18.584Z,15
2017-03-09T16:23:27.744Z,15
2017-03-09T16:24:36.910Z,15
2017-03-09T16:25:45.911Z,15
2017-03-09T16:26:54.895Z,15
2017-03-09T16:28:03.905Z,15
2017-03-09T16:29:12.912Z,15
2017-03-09T16:30:21.908Z,15